Time;durP1;ratioP1;P1;durP2;ratioP2;P2;SDS_P1;SDS_P2;PMS_P1;PMS_P2;Temp;Humidity;BMP_temperature;BMP_pressure;BME280_temperature;BME280_humidity;BME280_pressure;Samples;Min_cycle;Max_cycle;Signal;HPM_P1;HPM_P2
2022/03/30 00:00:37;;;;;;;0.90;0.90;;;12.70;65.70;;;;;;5013719;28;20377;-73
2022/03/30 00:03:04;;;;;;;0.40;0.30;;;12.70;64.50;;;;;;5014193;28;20388;-72
2022/03/30 00:05:30;;;;;;;0.50;0.50;;;12.80;65.90;;;;;;5013825;28;20428;-73
2022/03/30 00:07:56;;;;;;;0.60;0.60;;;12.80;65.30;;;;;;5014476;28;20446;-72
2022/03/30 00:10:22;;;;;;;0.40;0.20;;;12.80;66.70;;;;;;5025717;28;20478;-72
2022/03/30 00:12:49;;;;;;;0.40;0.20;;;13.30;63.30;;;;;;5033219;28;20438;-72
2022/03/30 00:15:16;;;;;;;0.40;0.20;;;13.60;61.80;;;;;;5032704;28;20426;-72
2022/03/30 00:17:43;;;;;;;0.40;0.30;;;14.00;58.10;;;;;;5032838;28;20858;-72
2022/03/30 00:20:10;;;;;;;0.50;0.50;;;14.40;56.90;;;;;;5033668;28;20465;-72
2022/03/30 00:22:38;;;;;;;0.40;0.20;;;14.60;56.40;;;;;;5033634;28;20389;-71
2022/03/30 00:25:05;;;;;;;2.30;1.00;;;14.50;57.20;;;;;;5033218;28;20901;-72
2022/03/30 00:27:31;;;;;;;0.50;0.50;;;14.40;57.80;;;;;;5033441;28;20411;-71
2022/03/30 00:29:56;;;;;;;0.40;0.20;;;14.30;58.50;;;;;;5031011;28;20501;-71
2022/03/30 00:32:22;;;;;;;0.40;0.20;;;14.20;58.20;;;;;;5033843;28;20395;-71
2022/03/30 00:34:48;;;;;;;0.40;0.30;;;14.30;57.40;;;;;;5032912;28;20390;-71
2022/03/30 00:37:13;;;;;;;2.00;0.70;;;14.60;56.60;;;;;;5031643;28;20434;-71
2022/03/30 00:39:39;;;;;;;2.85;1.20;;;14.60;57.10;;;;;;5032959;28;20929;-71
2022/03/30 00:42:25;;;;;;;0.70;0.70;;;14.50;58.30;;;;;;5032338;28;20391;-71
2022/03/30 00:44:51;;;;;;;0.40;0.30;;;14.40;59.10;;;;;;5027294;28;20424;-71
2022/03/30 00:47:27;;;;;;;0.40;0.30;;;14.30;60.70;;;;;;5016224;28;20460;-72
2022/03/30 00:49:53;;;;;;;2.10;0.50;;;14.20;64.70;;;;;;5033333;28;20439;-72
2022/03/30 00:52:20;;;;;;;0.40;0.30;;;14.00;70.50;;;;;;5032567;28;20462;-72
2022/03/30 00:54:49;;;;;;;0.40;0.40;;;13.80;74.10;;;;;;5032684;28;20384;-72
2022/03/30 00:57:17;;;;;;;0.80;0.80;;;13.70;77.70;;;;;;5032526;28;20415;-71
2022/03/30 00:59:43;;;;;;;0.50;0.50;;;13.50;80.40;;;;;;5032792;28;20379;-71
2022/03/30 01:02:09;;;;;;;0.40;0.20;;;13.70;73.10;;;;;;5032626;28;20774;-72
2022/03/30 01:04:35;;;;;;;0.40;0.40;;;13.80;69.80;;;;;;5033262;28;20867;-72
2022/03/30 01:07:02;;;;;;;0.40;0.30;;;13.60;76.60;;;;;;5032815;28;20409;-72
2022/03/30 01:09:29;;;;;;;0.90;0.90;;;13.50;85.10;;;;;;5031402;28;20383;-72
2022/03/30 01:11:57;;;;;;;0.40;0.20;;;13.50;78.60;;;;;;5032061;28;21472;-72
2022/03/30 01:14:23;;;;;;;0.60;0.45;;;13.30;87.40;;;;;;5032108;28;20486;-72
2022/03/30 01:16:50;;;;;;;0.40;0.20;;;13.40;78.20;;;;;;5031728;28;20970;-72
2022/03/30 01:19:16;;;;;;;0.40;0.30;;;13.60;76.10;;;;;;5032288;28;20441;-72
2022/03/30 01:21:42;;;;;;;0.50;0.32;;;13.60;79.40;;;;;;5032242;28;20673;-72
2022/03/30 01:24:10;;;;;;;0.40;0.20;;;13.40;86.80;;;;;;5032890;28;20379;-72
2022/03/30 01:26:37;;;;;;;0.40;0.20;;;13.30;92.70;;;;;;5031925;28;20742;-72
2022/03/30 01:34:36;;;;;;;0.40;0.20;;;12.80;97.40;;;;;;5032305;28;20417;-72
2022/03/30 01:37:03;;;;;;;1.40;1.10;;;12.70;99.90;;;;;;5032613;28;20379;-72
2022/03/30 01:39:29;;;;;;;0.70;0.60;;;12.50;98.60;;;;;;5032510;28;20751;-72
2022/03/30 01:41:55;;;;;;;0.50;0.40;;;12.50;99.90;;;;;;5031748;28;20390;-72
2022/03/30 01:44:20;;;;;;;0.80;0.80;;;12.50;99.90;;;;;;5032465;28;20391;-72
2022/03/30 01:46:46;;;;;;;0.50;0.50;;;12.40;99.90;;;;;;5031566;28;20379;-72
2022/03/30 01:49:12;;;;;;;0.40;0.40;;;12.30;99.90;;;;;;5032083;28;20422;-72
2022/03/30 01:51:37;;;;;;;0.40;0.20;;;12.30;99.90;;;;;;5031950;28;20395;-72
2022/03/30 01:54:03;;;;;;;0.73;0.60;;;12.20;99.90;;;;;;5031285;28;20479;-72
2022/03/30 01:56:29;;;;;;;0.40;0.30;;;11.90;99.90;;;;;;5032227;28;20379;-71
2022/03/30 01:58:54;;;;;;;0.40;0.30;;;11.80;99.90;;;;;;5031515;28;20391;-72
2022/03/30 02:01:20;;;;;;;0.40;0.20;;;11.80;99.90;;;;;;5030836;28;20399;-72
2022/03/30 02:03:46;;;;;;;3.00;1.10;;;11.80;99.90;;;;;;5031981;28;20832;-72
2022/03/30 02:06:12;;;;;;;0.40;0.20;;;11.80;99.90;;;;;;5029879;28;20764;-72
2022/03/30 02:08:38;;;;;;;0.40;0.20;;;11.80;99.90;;;;;;5031876;28;20407;-72
2022/03/30 02:11:04;;;;;;;0.40;0.30;;;11.50;99.90;;;;;;5031472;28;20445;-72
2022/03/30 02:13:30;;;;;;;1.00;1.00;;;11.50;99.90;;;;;;5031042;28;20399;-72
2022/03/30 02:15:55;;;;;;;0.40;0.23;;;11.50;99.90;;;;;;5031772;28;20818;-72
2022/03/30 02:18:21;;;;;;;0.40;0.30;;;11.30;99.90;;;;;;5030860;28;20391;-72
2022/03/30 02:20:47;;;;;;;0.80;0.70;;;11.40;99.90;;;;;;5031746;28;20431;-72
2022/03/30 02:23:12;;;;;;;0.40;0.20;;;11.20;99.90;;;;;;5031347;28;20387;-72
2022/03/30 02:25:38;;;;;;;0.40;0.20;;;11.10;99.90;;;;;;5030658;28;20817;-72
2022/03/30 02:28:04;;;;;;;0.40;0.20;;;11.00;99.90;;;;;;5031425;28;20919;-72
2022/03/30 02:30:30;;;;;;;0.40;0.20;;;10.80;99.90;;;;;;5030026;28;20453;-72
2022/03/30 02:32:57;;;;;;;0.40;0.40;;;10.70;99.90;;;;;;5031909;28;20387;-72
2022/03/30 02:35:23;;;;;;;0.75;0.70;;;10.70;99.90;;;;;;5031119;28;20721;-73
2022/03/30 02:37:49;;;;;;;1.50;0.90;;;10.60;99.90;;;;;;5031444;28;20402;-72
2022/03/30 02:40:15;;;;;;;0.43;0.28;;;10.60;99.90;;;;;;5031483;28;20782;-71
2022/03/30 02:42:41;;;;;;;0.40;0.20;;;10.50;99.90;;;;;;5029291;28;20399;-72
2022/03/30 02:45:07;;;;;;;0.80;0.70;;;10.40;99.90;;;;;;5031258;28;20386;-72
2022/03/30 02:50:16;;;;;;;1.00;0.70;;;10.50;99.90;;;;;;5031166;28;20446;-72
2022/03/30 02:52:42;;;;;;;0.80;0.80;;;10.50;99.90;;;;;;5028123;28;20407;-72
2022/03/30 02:55:08;;;;;;;0.40;0.20;;;10.30;99.90;;;;;;5031139;28;20772;-72
2022/03/30 02:57:34;;;;;;;1.53;1.43;;;10.20;99.90;;;;;;5029974;28;20406;-71
2022/03/30 02:59:59;;;;;;;0.40;0.40;;;10.20;99.90;;;;;;5030214;28;20383;-72
2022/03/30 03:02:26;;;;;;;0.70;0.70;;;10.20;99.90;;;;;;5031164;28;20421;-72
2022/03/30 03:04:51;;;;;;;0.90;0.90;;;10.20;99.90;;;;;;5030051;28;20529;-72
2022/03/30 03:07:17;;;;;;;0.50;0.50;;;10.20;99.90;;;;;;5031026;28;20534;-71
2022/03/30 03:09:43;;;;;;;0.40;0.20;;;10.20;99.90;;;;;;5030964;28;20390;-71
2022/03/30 03:12:09;;;;;;;0.40;0.20;;;10.30;99.90;;;;;;5029967;28;20860;-72
2022/03/30 03:14:34;;;;;;;0.40;0.20;;;10.20;99.90;;;;;;5030935;28;20383;-71
2022/03/30 03:17:00;;;;;;;0.75;0.70;;;10.20;99.90;;;;;;5029844;28;20390;-72
2022/03/30 03:19:28;;;;;;;0.40;0.20;;;10.10;99.90;;;;;;5029100;28;20411;-72
2022/03/30 03:21:54;;;;;;;0.90;0.90;;;10.10;99.90;;;;;;5030873;28;20403;-72
2022/03/30 03:24:19;;;;;;;0.40;0.30;;;10.10;99.90;;;;;;5030130;28;20744;-72
2022/03/30 03:26:45;;;;;;;0.60;0.60;;;10.20;99.90;;;;;;5019524;28;20874;-72
2022/03/30 03:29:11;;;;;;;0.40;0.20;;;10.30;99.90;;;;;;5029632;28;20470;-72
2022/03/30 03:31:36;;;;;;;0.50;0.50;;;10.30;99.90;;;;;;5029037;28;20462;-72
2022/03/30 03:34:02;;;;;;;0.40;0.30;;;10.50;99.90;;;;;;5011019;28;20381;-71
2022/03/30 03:36:27;;;;;;;0.83;0.83;;;10.50;99.90;;;;;;5010220;28;20416;-72
2022/03/30 03:38:53;;;;;;;0.40;0.40;;;10.40;99.90;;;;;;5009305;28;20880;-72
2022/03/30 03:41:20;;;;;;;0.80;0.80;;;10.40;99.90;;;;;;5008645;28;20411;-73
2022/03/30 03:43:46;;;;;;;0.88;0.77;;;10.10;99.90;;;;;;5030096;28;20379;-72
2022/03/30 03:46:12;;;;;;;0.40;0.20;;;9.90;99.90;;;;;;5030754;28;20422;-72
2022/03/30 03:48:37;;;;;;;0.40;0.20;;;10.10;99.90;;;;;;5029783;28;20407;-72
2022/03/30 03:51:03;;;;;;;0.40;0.20;;;10.00;99.90;;;;;;5030806;28;20498;-72
2022/03/30 03:53:29;;;;;;;0.40;0.27;;;10.10;99.90;;;;;;5029896;28;20387;-72
2022/03/30 03:55:55;;;;;;;9.40;1.20;;;10.00;99.90;;;;;;5030464;28;20520;-72
2022/03/30 03:58:20;;;;;;;0.40;0.30;;;10.00;99.90;;;;;;5030878;28;20383;-72
2022/03/30 04:00:46;;;;;;;0.40;0.20;;;10.00;99.90;;;;;;5029645;28;20856;-72
2022/03/30 04:03:12;;;;;;;1.20;1.20;;;10.10;99.90;;;;;;5030219;28;20456;-72
2022/03/30 04:05:38;;;;;;;0.40;0.20;;;10.10;99.90;;;;;;5029906;28;20468;-74
2022/03/30 04:08:04;;;;;;;0.40;0.20;;;10.00;99.90;;;;;;5025497;28;20548;-72
2022/03/30 04:10:30;;;;;;;0.40;0.20;;;10.10;99.90;;;;;;5018209;28;20924;-72
2022/03/30 04:12:56;;;;;;;0.40;0.20;;;9.90;99.90;;;;;;5008630;28;20400;-72
2022/03/30 04:15:22;;;;;;;0.70;0.70;;;9.90;99.90;;;;;;5010580;28;20819;-72
2022/03/30 04:17:48;;;;;;;3.00;1.00;;;9.90;99.90;;;;;;5010052;28;20769;-74
2022/03/30 04:20:14;;;;;;;0.40;0.30;;;9.80;99.90;;;;;;5010151;28;20411;-72
2022/03/30 04:22:41;;;;;;;2.30;1.30;;;9.80;99.90;;;;;;5011011;28;20388;-73
2022/03/30 04:25:08;;;;;;;0.68;0.65;;;9.80;99.90;;;;;;5008472;28;20800;-72
2022/03/30 04:27:34;;;;;;;0.40;0.20;;;9.80;99.90;;;;;;5010562;28;20404;-72
2022/03/30 04:30:00;;;;;;;0.40;0.30;;;9.90;99.90;;;;;;5012471;28;20411;-73
2022/03/30 04:32:26;;;;;;;0.70;0.70;;;9.90;99.90;;;;;;5014487;28;20472;-72
2022/03/30 04:34:52;;;;;;;0.40;0.27;;;9.90;99.90;;;;;;5013961;28;20389;-72
2022/03/30 04:37:18;;;;;;;0.40;0.30;;;9.90;99.90;;;;;;5013116;28;20435;-72
2022/03/30 04:39:43;;;;;;;0.43;0.43;;;9.90;99.90;;;;;;5014101;28;20475;-73
2022/03/30 04:42:09;;;;;;;0.40;0.20;;;9.80;99.90;;;;;;5012210;28;20393;-74
2022/03/30 04:44:34;;;;;;;1.70;1.60;;;9.80;99.90;;;;;;5013156;28;20400;-72
2022/03/30 04:47:00;;;;;;;0.40;0.20;;;9.80;99.90;;;;;;5012499;28;20423;-72
2022/03/30 04:49:26;;;;;;;0.70;0.70;;;9.80;99.90;;;;;;5013015;28;20420;-73
2022/03/30 04:51:52;;;;;;;0.40;0.40;;;9.80;99.90;;;;;;5012409;28;20388;-72
2022/03/30 04:54:18;;;;;;;0.40;0.40;;;9.90;99.90;;;;;;5013392;28;20765;-73
2022/03/30 04:56:45;;;;;;;0.63;0.45;;;9.90;99.90;;;;;;5013422;28;20419;-72
2022/03/30 04:59:11;;;;;;;0.40;0.40;;;9.90;99.90;;;;;;5013871;28;20385;-72
2022/03/30 05:01:37;;;;;;;0.40;0.38;;;10.00;99.90;;;;;;5022365;28;20383;-72
2022/03/30 05:04:05;;;;;;;6.30;1.30;;;10.00;99.90;;;;;;5033278;28;20485;-72
2022/03/30 05:06:31;;;;;;;2.20;0.70;;;10.00;99.90;;;;;;5032826;28;20398;-73
2022/03/30 05:08:56;;;;;;;0.40;0.30;;;10.00;99.90;;;;;;5029424;28;20502;-73
2022/03/30 05:11:22;;;;;;;0.80;0.80;;;9.90;99.90;;;;;;5023181;28;20443;-72
2022/03/30 05:13:48;;;;;;;0.40;0.20;;;9.90;99.90;;;;;;5024964;28;20377;-72
2022/03/30 05:16:14;;;;;;;0.70;0.50;;;9.90;99.90;;;;;;5018196;28;20389;-72
2022/03/30 05:18:40;;;;;;;0.50;0.50;;;9.90;99.90;;;;;;5012244;28;20923;-73
2022/03/30 05:21:05;;;;;;;1.50;1.40;;;9.90;99.90;;;;;;5012855;28;20451;-72
2022/03/30 05:23:31;;;;;;;0.40;0.20;;;9.80;99.90;;;;;;5013025;28;20905;-72
2022/03/30 05:25:57;;;;;;;0.40;0.30;;;9.80;99.90;;;;;;5011074;28;20400;-72
2022/03/30 05:28:22;;;;;;;0.40;0.20;;;9.90;99.90;;;;;;5012935;28;20765;-72
2022/03/30 05:30:48;;;;;;;0.40;0.30;;;9.90;99.90;;;;;;5011769;28;20428;-73
2022/03/30 05:33:14;;;;;;;0.40;0.40;;;9.90;99.90;;;;;;5016550;28;20381;-72
2022/03/30 05:35:39;;;;;;;0.80;0.80;;;10.00;99.90;;;;;;5013758;28;20842;-72
2022/03/30 05:38:05;;;;;;;0.40;0.40;;;10.00;99.90;;;;;;5020513;28;20412;-72
2022/03/30 05:40:31;;;;;;;0.40;0.20;;;9.90;99.90;;;;;;5012464;28;20865;-72
2022/03/30 05:42:57;;;;;;;0.40;0.20;;;10.00;99.90;;;;;;5012067;28;20405;-73
2022/03/30 05:45:23;;;;;;;0.40;0.20;;;9.90;99.90;;;;;;5012787;28;20460;-72
2022/03/30 05:47:49;;;;;;;0.40;0.20;;;9.90;99.90;;;;;;5012642;28;20401;-72
2022/03/30 05:50:15;;;;;;;0.40;0.20;;;10.00;99.90;;;;;;5010426;28;20404;-72
2022/03/30 05:52:41;;;;;;;0.40;0.40;;;9.90;99.90;;;;;;5028965;28;20895;-72
2022/03/30 05:55:09;;;;;;;0.40;0.22;;;9.80;99.90;;;;;;5034691;28;20387;-73
2022/03/30 05:57:35;;;;;;;2.10;1.40;;;9.90;99.90;;;;;;5032479;28;20454;-73
2022/03/30 06:00:01;;;;;;;0.40;0.27;;;9.90;99.90;;;;;;5030694;28;20514;-72
2022/03/30 06:02:27;;;;;;;0.40;0.20;;;10.10;99.90;;;;;;5029530;28;20402;-72
2022/03/30 06:04:53;;;;;;;0.40;0.20;;;10.20;99.90;;;;;;5031807;28;20524;-73
2022/03/30 06:07:19;;;;;;;0.63;0.45;;;10.10;99.90;;;;;;5028122;28;20444;-72
2022/03/30 06:09:45;;;;;;;0.40;0.20;;;10.10;99.90;;;;;;5031319;28;20458;-72
2022/03/30 06:12:11;;;;;;;0.40;0.20;;;10.20;99.90;;;;;;5026626;28;20795;-72
2022/03/30 06:14:37;;;;;;;3.90;2.35;;;10.30;99.90;;;;;;5016903;28;20383;-72
2022/03/30 06:17:05;;;;;;;0.40;0.20;;;10.30;99.90;;;;;;5026968;28;20755;-72
2022/03/30 06:19:32;;;;;;;0.40;0.30;;;10.40;99.90;;;;;;5030496;28;20411;-72
2022/03/30 06:21:58;;;;;;;0.40;0.20;;;10.40;99.90;;;;;;5031783;28;20891;-72
2022/03/30 06:24:24;;;;;;;0.40;0.20;;;10.40;99.90;;;;;;5031290;28;20415;-73
2022/03/30 06:26:50;;;;;;;0.40;0.20;;;10.40;99.90;;;;;;5030987;28;20387;-73
2022/03/30 06:29:16;;;;;;;0.40;0.30;;;10.50;99.90;;;;;;5030453;28;20499;-72
2022/03/30 06:31:42;;;;;;;0.40;0.20;;;10.60;99.90;;;;;;5030855;28;20466;-72
2022/03/30 06:34:08;;;;;;;0.40;0.20;;;10.60;99.90;;;;;;5031754;28;20848;-70
2022/03/30 06:36:37;;;;;;;0.40;0.20;;;10.50;99.90;;;;;;5030764;28;20567;-73
2022/03/30 06:39:03;;;;;;;0.40;0.20;;;10.60;99.90;;;;;;5030261;28;20493;-71
2022/03/30 06:41:29;;;;;;;1.70;0.90;;;10.70;99.90;;;;;;5029844;28;20486;-72
2022/03/30 06:43:56;;;;;;;0.40;0.20;;;10.80;99.90;;;;;;5030549;28;20476;-72
2022/03/30 06:46:22;;;;;;;2.60;1.10;;;10.80;99.90;;;;;;5031229;28;20446;-73
2022/03/30 06:48:48;;;;;;;0.40;0.20;;;10.70;99.90;;;;;;5028890;28;20415;-73
2022/03/30 06:51:15;;;;;;;0.40;0.20;;;10.80;99.90;;;;;;5029040;28;20415;-72
2022/03/30 06:53:42;;;;;;;0.40;0.25;;;10.80;99.90;;;;;;5031296;28;20383;-72
2022/03/30 06:56:08;;;;;;;0.40;0.20;;;10.80;99.90;;;;;;5030823;28;20441;-72
2022/03/30 06:58:34;;;;;;;0.40;0.20;;;10.90;99.90;;;;;;5030982;28;20772;-72
2022/03/30 07:01:00;;;;;;;1.10;1.00;;;10.80;99.90;;;;;;5030354;28;20375;-72
2022/03/30 07:03:29;;;;;;;0.40;0.20;;;10.80;99.90;;;;;;5030684;28;20448;-72
2022/03/30 07:05:56;;;;;;;0.40;0.20;;;10.70;99.90;;;;;;5029009;28;20391;-73
2022/03/30 07:11:06;;;;;;;0.40;0.20;;;10.80;99.90;;;;;;5030165;28;20967;-72
2022/03/30 07:13:32;;;;;;;0.40;0.20;;;10.80;99.90;;;;;;5030844;28;20809;-72
2022/03/30 07:15:59;;;;;;;0.50;0.40;;;11.00;99.90;;;;;;5038841;28;20460;-72
2022/03/30 07:18:26;;;;;;;0.60;0.60;;;11.00;99.90;;;;;;5051118;28;20400;-72
2022/03/30 07:20:52;;;;;;;0.40;0.30;;;10.90;99.90;;;;;;5048996;28;20402;-72
2022/03/30 07:23:18;;;;;;;0.40;0.20;;;11.00;99.90;;;;;;5048650;28;20480;-72
2022/03/30 07:25:44;;;;;;;0.60;0.60;;;11.00;99.90;;;;;;5050766;28;20392;-72
2022/03/30 07:28:11;;;;;;;0.40;0.20;;;11.00;99.90;;;;;;5047974;28;20884;-72
2022/03/30 07:30:37;;;;;;;0.40;0.40;;;11.10;99.90;;;;;;5049047;28;20452;-72
2022/03/30 07:33:03;;;;;;;0.50;0.50;;;11.10;99.90;;;;;;5050181;28;20373;-73
2022/03/30 07:35:32;;;;;;;0.40;0.30;;;10.90;99.90;;;;;;5052028;28;20385;-73
2022/03/30 07:37:59;;;;;;;0.40;0.20;;;10.90;99.90;;;;;;5051700;28;20385;-72
2022/03/30 07:40:26;;;;;;;0.40;0.20;;;10.90;99.90;;;;;;5051273;28;21003;-73
2022/03/30 07:42:54;;;;;;;1.20;0.70;;;10.80;99.90;;;;;;5050083;28;20393;-72
2022/03/30 07:45:20;;;;;;;0.40;0.30;;;10.80;99.90;;;;;;5049742;28;20385;-73
2022/03/30 07:47:46;;;;;;;0.40;0.22;;;10.90;99.90;;;;;;5050511;28;20414;-73
2022/03/30 07:50:13;;;;;;;1.00;1.00;;;10.80;99.90;;;;;;5049671;28;20862;-73
2022/03/30 07:52:39;;;;;;;0.40;0.40;;;10.90;99.90;;;;;;5050275;28;20382;-73
2022/03/30 07:55:07;;;;;;;0.50;0.50;;;10.70;99.90;;;;;;5050437;28;20381;-73
2022/03/30 07:57:36;;;;;;;0.70;0.60;;;10.80;99.90;;;;;;5049422;28;20391;-73
2022/03/30 08:00:06;;;;;;;0.40;0.20;;;10.90;99.90;;;;;;5050358;28;20468;-73
2022/03/30 08:02:32;;;;;;;0.43;0.35;;;10.80;99.90;;;;;;5048359;28;20388;-73
2022/03/30 08:04:58;;;;;;;0.40;0.20;;;11.00;99.90;;;;;;5053083;28;20900;-73
2022/03/30 08:07:26;;;;;;;0.40;0.20;;;11.00;99.90;;;;;;5052544;28;20409;-73
2022/03/30 08:09:52;;;;;;;0.40;0.20;;;11.00;99.90;;;;;;5045567;28;20391;-73
2022/03/30 08:12:20;;;;;;;0.40;0.40;;;11.00;99.90;;;;;;5034464;28;20390;-73
2022/03/30 08:14:46;;;;;;;0.40;0.20;;;10.80;99.90;;;;;;5032680;28;20398;-73
2022/03/30 08:17:12;;;;;;;0.40;0.20;;;10.90;99.90;;;;;;5033844;28;20740;-73
2022/03/30 08:19:38;;;;;;;0.40;0.20;;;10.90;99.90;;;;;;5031802;28;20418;-73
2022/03/30 08:24:49;;;;;;;0.40;0.30;;;11.30;99.90;;;;;;5033650;28;20379;-73
2022/03/30 08:27:29;;;;;;;0.40;0.20;;;11.30;99.90;;;;;;5032424;28;20415;-73
2022/03/30 08:29:56;;;;;;;1.00;0.80;;;11.30;99.90;;;;;;5034004;28;20801;-73
2022/03/30 08:32:23;;;;;;;1.30;1.20;;;11.40;99.90;;;;;;5033632;28;20759;-72
2022/03/30 08:34:51;;;;;;;0.50;0.50;;;11.50;99.90;;;;;;5033108;28;20390;-72
2022/03/30 08:37:17;;;;;;;0.40;0.20;;;11.50;99.90;;;;;;5033843;28;20436;-72
2022/03/30 08:39:44;;;;;;;0.40;0.28;;;11.70;99.90;;;;;;5032574;28;20384;-73
2022/03/30 08:42:13;;;;;;;1.10;0.45;;;11.80;99.90;;;;;;5033942;28;20380;-72
2022/03/30 08:44:41;;;;;;;0.40;0.20;;;11.90;99.90;;;;;;5032906;28;20395;-73
2022/03/30 08:47:08;;;;;;;1.00;1.00;;;11.80;99.90;;;;;;5033229;28;20407;-73
2022/03/30 08:49:37;;;;;;;0.40;0.30;;;11.80;99.90;;;;;;5033437;28;20386;-72
2022/03/30 08:52:05;;;;;;;0.40;0.30;;;11.90;99.90;;;;;;5032304;28;20502;-73
2022/03/30 08:54:31;;;;;;;0.40;0.30;;;12.00;99.90;;;;;;5032153;28;20391;-72
2022/03/30 08:56:57;;;;;;;0.52;0.52;;;12.20;99.90;;;;;;5032290;28;21143;-73
2022/03/30 08:59:24;;;;;;;0.90;0.60;;;12.10;99.90;;;;;;5033163;28;20427;-72
2022/03/30 09:01:53;;;;;;;2.70;1.00;;;12.10;99.90;;;;;;5032619;28;20383;-73
2022/03/30 09:04:19;;;;;;;0.40;0.40;;;12.10;99.90;;;;;;5033189;28;20401;-71
2022/03/30 09:06:56;;;;;;;0.40;0.32;;;11.90;99.90;;;;;;5032617;28;20445;-73
2022/03/30 09:09:31;;;;;;;0.40;0.30;;;11.90;99.90;;;;;;5029673;28;20397;-72
2022/03/30 09:11:59;;;;;;;0.40;0.30;;;11.90;99.90;;;;;;5012812;28;20389;-72
2022/03/30 09:14:29;;;;;;;0.40;0.20;;;11.90;99.90;;;;;;5013044;28;20431;-72
2022/03/30 09:17:04;;;;;;;0.40;0.40;;;12.10;99.90;;;;;;5012928;28;20707;-70
2022/03/30 09:19:36;;;;;;;0.50;0.50;;;12.10;99.90;;;;;;5013078;28;20475;-72
2022/03/30 09:22:04;;;;;;;0.40;0.20;;;12.00;99.90;;;;;;5012449;28;20805;-72
2022/03/30 09:24:33;;;;;;;0.40;0.20;;;12.20;99.90;;;;;;5013233;28;20471;-72
2022/03/30 09:27:00;;;;;;;0.40;0.20;;;12.20;99.90;;;;;;5011081;28;20928;-72
2022/03/30 09:29:29;;;;;;;0.50;0.50;;;12.20;99.90;;;;;;5013070;28;20385;-72
2022/03/30 09:31:55;;;;;;;0.40;0.30;;;12.30;99.90;;;;;;5012262;28;20818;-72
2022/03/30 09:34:21;;;;;;;0.40;0.30;;;12.30;99.90;;;;;;5012545;28;20393;-72
2022/03/30 09:36:51;;;;;;;0.40;0.30;;;12.30;99.90;;;;;;5012815;28;20385;-71
2022/03/30 09:39:28;;;;;;;0.90;0.70;;;12.30;99.90;;;;;;5012100;28;20392;-72
2022/03/30 09:41:56;;;;;;;0.40;0.20;;;12.40;99.90;;;;;;5013079;28;20381;-72
2022/03/30 09:44:22;;;;;;;0.40;0.28;;;12.40;99.90;;;;;;5012070;28;20496;-72
2022/03/30 09:46:58;;;;;;;0.40;0.20;;;12.70;99.90;;;;;;5012337;28;20400;-72
2022/03/30 09:49:41;;;;;;;0.40;0.20;;;12.80;99.90;;;;;;5011897;28;20408;-72
2022/03/30 09:52:22;;;;;;;0.47;0.45;;;12.80;99.90;;;;;;5011760;28;20396;-72
2022/03/30 09:54:53;;;;;;;0.50;0.50;;;12.90;99.90;;;;;;5012632;28;20416;-71
2022/03/30 09:57:21;;;;;;;4.30;1.70;;;12.90;99.90;;;;;;5011738;28;20393;-72
2022/03/30 10:00:06;;;;;;;0.40;0.30;;;12.90;99.90;;;;;;5012549;28;20393;-71
2022/03/30 10:02:34;;;;;;;0.40;0.20;;;12.90;99.90;;;;;;5012421;28;20385;-72
2022/03/30 10:05:02;;;;;;;0.40;0.20;;;13.00;99.90;;;;;;5012264;28;20380;-72
2022/03/30 10:07:29;;;;;;;0.40;0.30;;;12.90;99.90;;;;;;5011706;28;20892;-71
2022/03/30 10:09:57;;;;;;;14.90;1.10;;;12.90;99.90;;;;;;5020299;28;20392;-72
2022/03/30 10:12:27;;;;;;;1.10;0.90;;;13.20;99.90;;;;;;5031347;28;20478;-72
2022/03/30 10:14:54;;;;;;;0.40;0.30;;;13.40;99.90;;;;;;5031333;28;20442;-72
2022/03/30 10:17:22;;;;;;;0.40;0.20;;;13.50;99.90;;;;;;5029907;28;20751;-72
2022/03/30 10:19:49;;;;;;;0.40;0.40;;;13.80;99.90;;;;;;5031430;28;20406;-72
2022/03/30 10:22:34;;;;;;;0.40;0.30;;;13.70;99.90;;;;;;5030954;28;20448;-71
2022/03/30 10:25:12;;;;;;;5.10;1.20;;;13.80;99.90;;;;;;5031640;28;20390;-72
2022/03/30 10:28:11;;;;;;;0.40;0.40;;;13.90;99.90;;;;;;5030970;28;20457;-72
2022/03/30 10:30:40;;;;;;;0.40;0.30;;;13.80;99.90;;;;;;5029765;28;20562;-72
2022/03/30 10:33:06;;;;;;;0.50;0.50;;;13.80;99.90;;;;;;5031764;28;20384;-71
2022/03/30 10:35:46;;;;;;;0.40;0.20;;;13.90;99.90;;;;;;5030772;28;20387;-71
2022/03/30 10:38:14;;;;;;;0.40;0.20;;;14.00;99.90;;;;;;5031619;28;20402;-72
2022/03/30 10:40:41;;;;;;;0.40;0.30;;;14.40;99.90;;;;;;5030649;28;20479;-72
2022/03/30 10:43:09;;;;;;;0.40;0.30;;;14.30;99.90;;;;;;5031287;28;20391;-72
2022/03/30 10:45:56;;;;;;;0.40;0.20;;;14.60;99.90;;;;;;5030678;28;20384;-72
2022/03/30 10:48:22;;;;;;;0.40;0.20;;;14.50;99.90;;;;;;5031091;28;20410;-71
2022/03/30 10:50:55;;;;;;;1.20;1.10;;;14.30;99.90;;;;;;5030783;28;20399;-72
2022/03/30 10:53:38;;;;;;;0.50;0.50;;;14.40;99.90;;;;;;5030957;28;20395;-72
2022/03/30 10:56:15;;;;;;;0.40;0.20;;;14.40;99.90;;;;;;5031129;28;20390;-71
2022/03/30 10:58:53;;;;;;;0.40;0.30;;;14.40;99.90;;;;;;5030568;28;20430;-71
2022/03/30 11:01:22;;;;;;;0.50;0.50;;;14.40;99.90;;;;;;5031049;28;20394;-71
2022/03/30 11:04:00;;;;;;;0.40;0.30;;;14.30;99.90;;;;;;5030319;28;21069;-72
2022/03/30 11:06:28;;;;;;;0.95;0.57;;;14.40;99.90;;;;;;5029919;28;20796;-72
2022/03/30 11:08:58;;;;;;;0.85;0.77;;;14.40;99.90;;;;;;5030535;28;20415;-72
2022/03/30 11:11:34;;;;;;;0.40;0.30;;;14.30;99.90;;;;;;5011282;28;20903;-72
2022/03/30 11:14:28;;;;;;;0.40;0.30;;;14.10;99.90;;;;;;5011467;28;20738;-71
2022/03/30 11:16:56;;;;;;;0.40;0.30;;;13.90;99.90;;;;;;5010493;28;21036;-71
2022/03/30 11:19:29;;;;;;;0.43;0.32;;;14.10;99.90;;;;;;5010415;28;20893;-72
2022/03/30 11:22:01;;;;;;;0.40;0.20;;;14.00;99.90;;;;;;5009134;28;20400;-73
2022/03/30 11:24:30;;;;;;;0.40;0.23;;;14.00;99.90;;;;;;5011275;28;20439;-72
2022/03/30 11:26:59;;;;;;;0.60;0.60;;;14.10;99.90;;;;;;5010116;28;20385;-73
2022/03/30 11:29:49;;;;;;;0.40;0.30;;;14.20;99.90;;;;;;5009714;28;20781;-72
2022/03/30 11:32:31;;;;;;;1.75;0.35;;;14.40;99.90;;;;;;5010692;28;20882;-73
2022/03/30 11:35:10;;;;;;;1.20;0.70;;;14.50;99.90;;;;;;5010192;28;20420;-72
2022/03/30 11:37:47;;;;;;;0.40;0.40;;;14.60;99.90;;;;;;5010914;28;20404;-72
2022/03/30 11:40:16;;;;;;;4.38;1.52;;;14.70;99.90;;;;;;5011304;28;20412;-72
2022/03/30 11:42:46;;;;;;;0.40;0.30;;;14.90;99.90;;;;;;5010635;28;20400;-72
2022/03/30 11:45:21;;;;;;;0.50;0.40;;;15.00;99.90;;;;;;5035820;28;20400;-72
2022/03/30 11:47:51;;;;;;;0.40;0.20;;;14.90;99.90;;;;;;5009973;28;20455;-72
2022/03/30 11:50:29;;;;;;;0.40;0.30;;;14.90;99.90;;;;;;5026841;28;20466;-72
2022/03/30 11:53:04;;;;;;;0.60;0.50;;;15.00;99.90;;;;;;5049644;28;20484;-72
2022/03/30 11:55:49;;;;;;;0.40;0.40;;;14.90;99.90;;;;;;5050382;28;20790;-71
2022/03/30 11:58:23;;;;;;;0.50;0.50;;;15.00;99.90;;;;;;5039478;28;20473;-72
2022/03/30 12:00:49;;;;;;;1.10;0.90;;;14.90;99.90;;;;;;5022516;28;20877;-72
2022/03/30 12:03:15;;;;;;;0.40;0.30;;;14.90;99.90;;;;;;5021411;28;20387;-72
2022/03/30 12:05:41;;;;;;;0.40;0.20;;;15.30;99.90;;;;;;5018515;28;20439;-72
2022/03/30 12:08:07;;;;;;;1.13;0.70;;;14.70;99.90;;;;;;5018080;28;20401;-72
2022/03/30 12:10:32;;;;;;;0.70;0.70;;;14.50;99.90;;;;;;5019981;28;20405;-72
2022/03/30 12:13:00;;;;;;;0.65;0.65;;;14.60;99.90;;;;;;5017719;28;20383;-71
2022/03/30 12:15:26;;;;;;;0.70;0.70;;;14.40;99.90;;;;;;5021890;28;20792;-71
2022/03/30 12:17:58;;;;;;;0.73;0.73;;;14.30;99.90;;;;;;5019153;28;20387;-71
2022/03/30 12:20:34;;;;;;;0.90;0.90;;;14.20;99.90;;;;;;5017082;28;20429;-70
2022/03/30 12:23:01;;;;;;;0.90;0.90;;;14.10;99.90;;;;;;5021164;28;20382;-71
2022/03/30 12:25:30;;;;;;;0.60;0.50;;;14.20;99.90;;;;;;5024966;28;20422;-71
2022/03/30 12:27:56;;;;;;;0.40;0.25;;;14.30;99.90;;;;;;5041509;28;20515;-72
2022/03/30 12:30:23;;;;;;;1.20;1.10;;;14.40;99.90;;;;;;5028871;28;20399;-71
2022/03/30 12:32:50;;;;;;;0.45;0.45;;;14.50;99.90;;;;;;5029427;28;20395;-72
2022/03/30 12:35:17;;;;;;;0.40;0.30;;;14.60;99.90;;;;;;5028605;28;20870;-72
2022/03/30 12:37:46;;;;;;;0.90;0.90;;;14.50;99.90;;;;;;5023751;28;20385;-70
2022/03/30 12:40:14;;;;;;;0.40;0.40;;;14.60;99.90;;;;;;5009899;28;20785;-73
2022/03/30 12:42:43;;;;;;;0.60;0.60;;;14.50;99.90;;;;;;5026268;28;20395;-72
2022/03/30 12:45:11;;;;;;;1.20;1.10;;;14.10;99.90;;;;;;5026294;28;20451;-72
2022/03/30 12:47:58;;;;;;;0.40;0.40;;;14.40;99.90;;;;;;5012055;28;20919;-72
2022/03/30 12:50:33;;;;;;;0.40;0.30;;;14.50;99.90;;;;;;5030998;28;20418;-72
2022/03/30 12:53:06;;;;;;;0.40;0.30;;;13.80;99.90;;;;;;5033517;28;20396;-72
2022/03/30 12:55:34;;;;;;;0.40;0.30;;;13.40;99.90;;;;;;5032898;28;20399;-72
2022/03/30 12:58:10;;;;;;;0.52;0.52;;;13.20;99.90;;;;;;5024588;28;20430;-72
2022/03/30 13:00:43;;;;;;;0.60;0.60;;;13.30;99.90;;;;;;5022451;28;20906;-72
2022/03/30 13:03:18;;;;;;;0.40;0.30;;;13.40;99.90;;;;;;5024764;28;20418;-72
2022/03/30 13:06:04;;;;;;;0.40;0.30;;;13.20;99.90;;;;;;5020662;28;20393;-73